Couch, Missouri
Current Conditions -  °F | °C
As of 11:53 AM on Sunday 25 Jan 2015 (Local Time) from KUNO Reporting Station
Overcast Overcast  
Wind Chill:   Ceiling: 2400
Heat Index:   Visibility: 10mi
Dew Point:   Wind: 15mph
Humidity: 74%   Direction: 280°W
Pressure: 29.65"   Gusts: 23mph
Location:  36.61°N, 91.38°W
Report Text: KUNO 251753Z AUTO 28013G20KT 10SM BKN024 BKN033 OVC075 09/04 A2965 RMK AO2 RAB29E42 SLP040 P0001 60005 T00890044 10089 20061 53001
Loading
Personal Weather Stations






























Interactive Weather Map New forecast layout! Learn more

10-Day Weather Forecast

Advertisements
Track Severe Weather on mobile